LKKU  Kunovice Airport

Add Bookmark

Uherské Hradiště, Czech Republic

Status IATA
Operational UHE
Latitude Longitude
49° 1' 45" N 17° 26' 22" E
49.029400 17.439699
Local (DST + 2) UTC (GMT + 1)
Oct 2, 2014 12:24 Oct 2, 2014 10:24
Sunrise-Sunset Local UTC
Begin Civil Twilight 06:18 04:18
Sunrise 06:50 04:50
Sunset 06:28 16:28
End Civil Twilight 07:00 17:00

Current Weather

METAR Observed MVFR
LKKU 021000Z 01008KT 250V040 9999 SCT018 BKN027 17/14 Q1027 Thu, Oct 2, 2014 @ 10:00 UTC
(24 Minutes ago)
Marginal Visual Flight Rules
Wind Visibility Clouds Conditions
010° at 8 knots (15 kph) 10 km or more
  • Scattered at 1,800' AGL
  • Broken at 2,700' AGL
  • No significant weather
Temperatures Readings Precipitation
Current Temp 17°C (63°F)
Dewpoint 14°C (57°F)
Humidity 83%
Altimeter 30.32"Hg
Sea Level Pressure 1027mb
Field Elevation 580.71'
None Recorded

Additional weather within a 92.6km radius of LKKU

Map ICAO Location
LZPP 53.2km S (148°)
LKTB 55.9km W (284°)
LZZI 88.3km E (075°)
LKMT 88.5km N (033°)

24 Hour Weather History

Loading
-

24 Hour Weather Graphs

Loading
-

CheckWX.com is intended as a tool to help pilots better visualize weather data. It is not intended as a substitute for an official weather briefing obtained from a Flight Service Station. CheckWX.com does not meet the FAA requirements for an official pre-flight weather briefing. Therefore, it's important that pilots still call and obtain an official FSS pre-flight weather briefing.